createdAt,value
2023-10-09T00:00:52.087Z,3.97
2023-10-09T00:03:23.934Z,4.40
2023-10-09T00:05:54.782Z,3.70
2023-10-09T00:08:31.419Z,3.77
2023-10-09T00:11:14.661Z,4.70
2023-10-09T00:13:50.171Z,4.37
2023-10-09T00:16:25.643Z,3.77
2023-10-09T00:18:55.249Z,3.67
2023-10-09T00:21:24.416Z,3.60
2023-10-09T00:23:57.012Z,3.70
2023-10-09T00:26:27.616Z,3.90
2023-10-09T00:28:56.267Z,4.37
2023-10-09T00:31:34.445Z,3.20
2023-10-09T00:34:04.772Z,4.00
2023-10-09T00:36:34.160Z,4.57
2023-10-09T00:39:13.307Z,3.93
2023-10-09T00:41:43.845Z,3.87
2023-10-09T00:44:12.922Z,3.70
2023-10-09T00:46:44.254Z,4.20
2023-10-09T00:49:17.095Z,3.73
2023-10-09T00:51:57.876Z,3.60
2023-10-09T00:54:28.973Z,3.33
2023-10-09T00:57:07.856Z,5.33
2023-10-09T00:59:39.993Z,3.30
2023-10-09T01:02:08.911Z,3.60
2023-10-09T01:04:42.441Z,4.10
2023-10-09T01:07:16.722Z,3.10
2023-10-09T01:09:46.182Z,3.63
2023-10-09T01:12:19.626Z,3.70
2023-10-09T01:14:53.884Z,3.93
2023-10-09T01:17:37.341Z,3.50
2023-10-09T01:20:15.439Z,3.60
2023-10-09T01:22:44.739Z,4.20
2023-10-09T01:25:17.185Z,3.30
2023-10-09T01:27:46.047Z,3.67
2023-10-09T01:30:16.151Z,3.50
2023-10-09T01:32:46.434Z,4.13
2023-10-09T01:35:23.458Z,3.60
2023-10-09T01:37:52.788Z,3.70
2023-10-09T01:40:36.671Z,4.63
2023-10-09T01:43:06.009Z,3.60
2023-10-09T01:45:43.424Z,3.80
2023-10-09T01:48:13.590Z,5.83
2023-10-09T01:50:43.260Z,3.70
2023-10-09T01:53:18.914Z,4.23
2023-10-09T01:55:51.017Z,3.97
2023-10-09T01:58:25.651Z,4.40
2023-10-09T02:00:56.724Z,4.07
2023-10-09T02:03:30.538Z,4.07
2023-10-09T02:06:01.686Z,3.80
2023-10-09T02:08:31.232Z,4.07
2023-10-09T02:11:04.029Z,4.30
2023-10-09T02:13:35.913Z,3.30
2023-10-09T02:16:16.155Z,3.63
2023-10-09T02:18:55.307Z,4.10
2023-10-09T02:21:34.377Z,4.97
2023-10-09T02:24:08.501Z,11.07
2023-10-09T02:26:52.600Z,3.80
2023-10-09T02:29:24.985Z,3.57
2023-10-09T02:31:56.221Z,3.50
2023-10-09T02:34:27.254Z,3.80
2023-10-09T02:37:05.530Z,3.83
2023-10-09T02:39:38.312Z,3.60
2023-10-09T02:42:20.672Z,3.83
2023-10-09T02:44:51.738Z,3.57
2023-10-09T02:47:26.104Z,3.70
2023-10-09T02:50:01.814Z,4.37
2023-10-09T02:52:35.428Z,3.50
2023-10-09T02:55:14.991Z,4.07
2023-10-09T02:57:46.665Z,3.57
2023-10-09T03:00:20.664Z,3.90
2023-10-09T03:02:52.287Z,4.40
2023-10-09T03:05:21.982Z,4.20
2023-10-09T03:07:53.324Z,3.60
2023-10-09T03:10:22.721Z,4.00
2023-10-09T03:12:54.450Z,4.90
2023-10-09T03:15:23.363Z,4.33
2023-10-09T03:17:52.286Z,4.97
2023-10-09T03:20:21.053Z,5.10
2023-10-09T03:22:50.775Z,4.53
2023-10-09T03:25:19.646Z,5.43
2023-10-09T03:27:48.916Z,4.53
2023-10-09T03:30:24.240Z,4.63
2023-10-09T03:32:54.228Z,4.50
2023-10-09T03:35:27.445Z,4.93
2023-10-09T03:38:01.542Z,4.30
2023-10-09T03:40:32.222Z,5.70
2023-10-09T03:43:02.380Z,4.93
2023-10-09T03:45:36.515Z,4.47
2023-10-09T03:48:12.513Z,5.00
2023-10-09T03:50:44.574Z,5.90
2023-10-09T03:53:14.115Z,5.40
2023-10-09T03:55:43.344Z,6.67
2023-10-09T03:58:14.948Z,5.33
2023-10-09T04:00:48.355Z,5.77
2023-10-09T04:03:18.978Z,4.63
2023-10-09T04:05:47.884Z,5.17
2023-10-09T04:08:30.460Z,4.93
2023-10-09T04:11:05.157Z,5.67
2023-10-09T04:13:35.657Z,6.70
2023-10-09T04:16:21.168Z,8.10
2023-10-09T04:18:50.830Z,6.03
2023-10-09T04:21:29.330Z,5.17
2023-10-09T04:24:15.985Z,5.47
2023-10-09T04:26:46.439Z,5.20
2023-10-09T04:29:19.711Z,5.10
2023-10-09T04:31:52.979Z,6.30
2023-10-09T04:34:25.237Z,4.97
2023-10-09T04:36:58.148Z,5.10
2023-10-09T04:39:48.647Z,5.57
2023-10-09T04:42:35.470Z,6.63
2023-10-09T04:45:37.042Z,7.40
2023-10-09T04:48:10.228Z,6.80
2023-10-09T04:50:59.652Z,5.97
2023-10-09T04:53:29.985Z,6.20
2023-10-09T04:55:58.752Z,5.83
2023-10-09T04:58:28.381Z,6.40
2023-10-09T05:01:20.248Z,6.30
2023-10-09T05:03:58.174Z,5.47
2023-10-09T05:06:55.809Z,6.17
2023-10-09T05:09:25.298Z,6.33
2023-10-09T05:12:10.769Z,6.80
2023-10-09T05:14:48.827Z,7.23
2023-10-09T05:17:19.178Z,6.43
2023-10-09T05:20:18.036Z,6.67
2023-10-09T05:22:58.352Z,6.27
2023-10-09T05:25:53.970Z,5.87
2023-10-09T05:28:33.143Z,7.23
2023-10-09T05:31:09.657Z,6.73
2023-10-09T05:33:40.032Z,6.97
2023-10-09T05:36:27.827Z,6.40
2023-10-09T05:39:18.815Z,7.60
2023-10-09T05:41:49.239Z,7.10
2023-10-09T05:44:35.174Z,6.77
2023-10-09T05:47:20.363Z,8.13
2023-10-09T05:49:56.117Z,7.17
2023-10-09T05:53:01.977Z,8.50
2023-10-09T05:55:49.390Z,7.30
2023-10-09T05:58:35.554Z,7.00
2023-10-09T06:01:21.884Z,7.63
2023-10-09T06:03:55.107Z,7.77
2023-10-09T06:06:44.163Z,8.70
2023-10-09T06:09:50.996Z,9.23
2023-10-09T06:12:34.688Z,8.50
2023-10-09T06:15:21.976Z,8.83
2023-10-09T06:17:52.711Z,9.40
2023-10-09T06:20:38.929Z,9.93
2023-10-09T06:23:17.853Z,9.30
2023-10-09T06:25:52.755Z,9.30
2023-10-09T06:28:34.146Z,9.77
2023-10-09T06:31:23.709Z,10.07
2023-10-09T06:34:16.886Z,10.30
2023-10-09T06:36:54.273Z,10.47
2023-10-09T06:39:40.441Z,9.40
2023-10-09T06:42:32.369Z,11.10
2023-10-09T06:45:05.843Z,9.80
2023-10-09T06:47:42.279Z,11.93
2023-10-09T06:50:25.673Z,13.80
2023-10-09T06:53:25.485Z,10.27
2023-10-09T06:56:06.363Z,9.77
2023-10-09T06:58:43.278Z,11.03
2023-10-09T07:01:41.028Z,10.80
2023-10-09T07:04:20.642Z,10.07
2023-10-09T07:06:52.270Z,17.50
2023-10-09T07:09:21.061Z,12.43
2023-10-09T07:12:04.678Z,10.77
2023-10-09T07:14:55.204Z,10.90
2023-10-09T07:17:44.476Z,15.40
2023-10-09T07:20:37.749Z,13.23
2023-10-09T07:23:19.084Z,12.50
2023-10-09T07:26:07.357Z,11.80
2023-10-09T07:28:43.921Z,12.07
2023-10-09T07:31:41.453Z,10.90
2023-10-09T07:34:24.324Z,10.27
2023-10-09T07:36:57.861Z,10.77
2023-10-09T07:39:35.437Z,11.60
2023-10-09T07:42:27.826Z,11.00
2023-10-09T07:45:12.321Z,12.60
2023-10-09T07:48:02.114Z,19.50
2023-10-09T07:50:39.438Z,26.30
2023-10-09T07:53:19.241Z,19.17
2023-10-09T07:55:55.370Z,17.30
2023-10-09T07:58:27.261Z,17.83
2023-10-09T08:01:09.194Z,15.10
2023-10-09T08:03:39.818Z,13.10
2023-10-09T08:06:25.329Z,12.20
2023-10-09T08:09:08.828Z,18.10
2023-10-09T08:12:00.995Z,14.97
2023-10-09T08:14:44.241Z,15.27
2023-10-09T08:17:22.176Z,19.43
2023-10-09T08:19:55.568Z,23.13
2023-10-09T08:22:44.391Z,23.17
2023-10-09T08:25:27.420Z,45.30
2023-10-09T08:27:58.234Z,27.07
2023-10-09T08:30:30.286Z,25.13
2023-10-09T08:35:49.310Z,20.50
2023-10-09T08:38:24.685Z,24.73
2023-10-09T08:40:59.897Z,33.00
2023-10-09T08:43:32.260Z,12.13
2023-10-09T08:46:03.910Z,18.80
2023-10-09T08:48:33.905Z,15.40
2023-10-09T08:51:07.496Z,17.03
2023-10-09T08:53:36.360Z,17.40
2023-10-09T08:56:05.744Z,25.70
2023-10-09T08:58:38.233Z,67.00
2023-10-09T09:01:07.106Z,39.57
2023-10-09T09:03:42.023Z,46.13
2023-10-09T09:06:15.268Z,23.40
2023-10-09T09:08:46.185Z,50.07
2023-10-09T09:11:17.418Z,20.20
2023-10-09T09:13:50.959Z,27.07
2023-10-09T09:16:22.757Z,48.03
2023-10-09T09:19:01.991Z,31.90
2023-10-09T09:21:39.067Z,20.60
2023-10-09T09:24:16.862Z,20.23
2023-10-09T09:26:59.947Z,16.73
2023-10-09T09:29:53.634Z,17.97
2023-10-09T09:32:37.084Z,16.30
2023-10-09T09:35:06.973Z,17.27
2023-10-09T09:37:51.815Z,25.13
2023-10-09T09:40:34.937Z,23.00
2023-10-09T09:43:07.843Z,14.97
2023-10-09T09:45:38.534Z,13.93
2023-10-09T09:48:08.319Z,14.77
2023-10-09T09:50:44.499Z,13.70
2023-10-09T09:53:18.403Z,14.30
2023-10-09T09:55:57.901Z,13.20
2023-10-09T09:58:33.739Z,12.40
2023-10-09T10:01:17.279Z,12.57
2023-10-09T10:03:50.152Z,9.80
2023-10-09T10:06:22.430Z,12.17
2023-10-09T10:08:53.294Z,11.17
2023-10-09T10:11:46.761Z,10.50
2023-10-09T10:14:23.604Z,12.33
2023-10-09T10:17:20.551Z,9.00
2023-10-09T10:20:23.819Z,11.20
2023-10-09T10:22:53.116Z,9.90
2023-10-09T10:25:42.541Z,9.83
2023-10-09T10:28:40.585Z,12.57
2023-10-09T10:31:10.765Z,12.27
2023-10-09T10:34:12.059Z,11.47
2023-10-09T10:36:44.252Z,9.27
2023-10-09T10:39:20.864Z,10.73
2023-10-09T10:41:58.841Z,11.97
2023-10-09T10:44:45.283Z,9.70
2023-10-09T10:47:26.102Z,13.63
2023-10-09T10:50:00.635Z,11.43
2023-10-09T10:52:43.582Z,11.93
2023-10-09T10:55:40.611Z,12.47
2023-10-09T10:58:24.999Z,15.77
2023-10-09T11:01:14.838Z,12.47
2023-10-09T11:03:57.518Z,11.70
2023-10-09T11:06:38.942Z,12.90
2023-10-09T11:09:22.047Z,12.67
2023-10-09T11:11:56.317Z,12.00
2023-10-09T11:14:26.550Z,12.13
2023-10-09T11:17:00.049Z,12.53
2023-10-09T11:19:33.618Z,10.83
2023-10-09T11:22:21.004Z,12.93
2023-10-09T11:25:12.411Z,13.77
2023-10-09T11:27:51.766Z,12.20
2023-10-09T11:30:34.392Z,10.97
2023-10-09T11:33:15.566Z,11.57
2023-10-09T11:35:58.189Z,16.53
2023-10-09T11:38:27.212Z,13.03
2023-10-09T11:41:19.446Z,11.60
2023-10-09T11:43:58.620Z,14.50
2023-10-09T11:46:49.541Z,14.17
2023-10-09T11:49:45.492Z,13.90
2023-10-09T11:52:31.990Z,12.30
2023-10-09T11:55:01.065Z,11.67
2023-10-09T11:57:31.948Z,13.87
2023-10-09T12:00:01.759Z,14.20
2023-10-09T12:02:32.589Z,13.77
2023-10-09T12:05:01.500Z,15.10
2023-10-09T12:07:30.844Z,14.70
2023-10-09T12:09:59.594Z,11.60
2023-10-09T12:12:28.325Z,13.80
2023-10-09T12:14:57.027Z,15.07
2023-10-09T12:17:26.991Z,19.20
2023-10-09T12:19:57.859Z,20.73
2023-10-09T12:22:28.486Z,14.93
2023-10-09T12:24:57.714Z,21.20
2023-10-09T12:27:26.482Z,18.10
2023-10-09T12:29:58.177Z,23.50
2023-10-09T12:32:26.954Z,20.13
2023-10-09T12:34:57.494Z,21.70
2023-10-09T12:37:26.281Z,16.57
2023-10-09T12:39:57.401Z,18.50
2023-10-09T12:42:29.255Z,23.63
2023-10-09T12:44:59.038Z,22.90
2023-10-09T12:47:28.240Z,23.83
2023-10-09T12:49:58.519Z,16.50
2023-10-09T12:52:31.090Z,17.97
2023-10-09T12:54:59.992Z,21.83
2023-10-09T12:57:28.743Z,19.50
2023-10-09T12:59:57.430Z,22.27
2023-10-09T13:02:30.848Z,34.20
2023-10-09T13:05:04.442Z,23.13
2023-10-09T13:07:33.324Z,24.70
2023-10-09T13:10:10.899Z,36.10
2023-10-09T13:12:42.681Z,33.67
2023-10-09T13:15:12.905Z,20.00
2023-10-09T13:17:42.726Z,37.47
2023-10-09T13:20:15.010Z,28.10
2023-10-09T13:22:47.568Z,33.80
2023-10-09T13:25:33.651Z,31.87
2023-10-09T13:28:05.397Z,29.00
2023-10-09T13:30:41.145Z,33.57
2023-10-09T13:33:18.292Z,32.87
2023-10-09T13:35:51.993Z,37.07
2023-10-09T13:38:21.169Z,23.40
2023-10-09T13:40:50.746Z,25.33
2023-10-09T13:43:19.856Z,20.77
2023-10-09T13:45:51.517Z,19.27
2023-10-09T13:48:22.245Z,28.10
2023-10-09T13:51:03.765Z,18.90
2023-10-09T13:53:32.504Z,15.70
2023-10-09T13:56:01.192Z,27.33
2023-10-09T13:58:29.895Z,22.50
2023-10-09T14:00:58.769Z,22.17
2023-10-09T14:03:28.662Z,25.17
2023-10-09T14:06:11.394Z,21.00
2023-10-09T14:08:43.281Z,23.67
2023-10-09T14:11:14.527Z,22.07
2023-10-09T14:13:43.713Z,23.53
2023-10-09T14:16:25.098Z,18.83
2023-10-09T14:18:54.703Z,27.00
2023-10-09T14:21:26.921Z,18.13
2023-10-09T14:23:58.141Z,15.47
2023-10-09T14:26:30.444Z,15.43
2023-10-09T14:28:59.608Z,19.33
2023-10-09T14:31:29.483Z,11.57
2023-10-09T14:33:59.236Z,16.90
2023-10-09T14:36:34.746Z,13.17
2023-10-09T14:39:05.709Z,9.33
2023-10-09T14:41:34.976Z,8.83
2023-10-09T14:44:03.812Z,8.27
2023-10-09T14:46:32.519Z,10.63
2023-10-09T14:49:04.203Z,14.37
2023-10-09T14:51:36.153Z,11.67
2023-10-09T14:54:05.045Z,15.73
2023-10-09T14:56:37.312Z,25.23
2023-10-09T14:59:06.391Z,19.90
2023-10-09T15:01:35.314Z,24.30
2023-10-09T15:04:05.091Z,29.13
2023-10-09T15:06:36.524Z,26.10
2023-10-09T15:09:10.401Z,28.90
2023-10-09T15:11:40.063Z,15.97
2023-10-09T15:14:09.857Z,18.87
2023-10-09T15:16:40.487Z,21.20
2023-10-09T15:19:11.070Z,24.40
2023-10-09T15:21:45.199Z,16.43
2023-10-09T15:24:19.419Z,32.43
2023-10-09T15:26:53.542Z,46.50
2023-10-09T15:29:24.711Z,33.70
2023-10-09T15:31:53.739Z,32.30
2023-10-09T15:34:22.899Z,32.63
2023-10-09T15:36:54.775Z,105.47
2023-10-09T15:39:24.960Z,25.30
2023-10-09T15:41:53.677Z,52.80
2023-10-09T15:44:27.938Z,28.90
2023-10-09T15:47:01.021Z,12.13
2023-10-09T15:49:31.189Z,28.77
2023-10-09T15:52:02.394Z,63.03
2023-10-09T15:54:31.330Z,28.50
2023-10-09T15:57:12.397Z,32.23
2023-10-09T15:59:41.576Z,13.70
2023-10-09T16:02:10.454Z,22.33
2023-10-09T16:04:40.553Z,12.37
2023-10-09T16:07:11.221Z,9.23
2023-10-09T16:09:40.521Z,10.77
2023-10-09T16:12:10.629Z,12.87
2023-10-09T16:14:39.574Z,10.50
2023-10-09T16:17:08.687Z,8.57
2023-10-09T16:19:38.461Z,11.00
2023-10-09T16:22:07.431Z,15.40
2023-10-09T16:24:39.685Z,12.70
2023-10-09T16:27:09.159Z,12.80
2023-10-09T16:29:40.187Z,11.27
2023-10-09T16:32:12.378Z,10.90
2023-10-09T16:34:41.728Z,11.70
2023-10-09T16:37:12.578Z,19.83
2023-10-09T16:39:43.159Z,38.37
2023-10-09T16:42:11.931Z,26.17
2023-10-09T16:44:40.633Z,19.90
2023-10-09T16:47:12.361Z,13.97
2023-10-09T16:49:42.698Z,14.30
2023-10-09T16:52:13.278Z,16.30
2023-10-09T16:54:44.486Z,16.63
2023-10-09T16:57:14.019Z,17.00
2023-10-09T16:59:43.240Z,12.80
2023-10-09T17:02:14.268Z,13.40
2023-10-09T17:04:45.479Z,13.57
2023-10-09T17:07:16.343Z,24.17
2023-10-09T17:09:50.132Z,33.57
2023-10-09T17:12:19.289Z,15.27
2023-10-09T17:14:48.125Z,20.93
2023-10-09T17:17:19.088Z,14.00
2023-10-09T17:19:49.630Z,17.13
2023-10-09T17:22:18.416Z,14.40
2023-10-09T17:24:48.572Z,19.00
2023-10-09T17:27:20.135Z,19.50
2023-10-09T17:29:48.852Z,19.90
2023-10-09T17:32:17.595Z,14.17
2023-10-09T17:34:46.344Z,14.00
2023-10-09T17:37:15.113Z,13.67
2023-10-09T17:39:43.773Z,11.97
2023-10-09T17:42:13.903Z,15.97
2023-10-09T17:44:42.633Z,21.20
2023-10-09T17:47:12.465Z,21.90
2023-10-09T17:49:41.456Z,17.43
2023-10-09T17:52:12.771Z,15.60
2023-10-09T17:54:41.560Z,16.43
2023-10-09T17:57:10.242Z,18.27
2023-10-09T17:59:41.348Z,15.03
2023-10-09T18:02:10.220Z,19.20
2023-10-09T18:04:39.377Z,15.13
2023-10-09T18:07:14.854Z,13.53
2023-10-09T18:09:43.622Z,14.83
2023-10-09T18:12:14.551Z,16.30
2023-10-09T18:14:47.330Z,14.73
2023-10-09T18:17:20.979Z,15.40
2023-10-09T18:19:51.726Z,15.20
2023-10-09T18:22:20.753Z,16.97
2023-10-09T18:24:49.443Z,17.13
2023-10-09T18:27:18.106Z,17.70
2023-10-09T18:29:49.727Z,17.50
2023-10-09T18:32:19.164Z,15.20
2023-10-09T18:34:49.437Z,16.33
2023-10-09T18:37:20.095Z,16.17
2023-10-09T18:39:51.357Z,15.10
2023-10-09T18:42:20.412Z,15.07
2023-10-09T18:44:50.540Z,15.77
2023-10-09T18:47:20.657Z,17.53
2023-10-09T18:49:51.442Z,18.00
2023-10-09T18:52:21.551Z,16.53
2023-10-09T18:54:50.284Z,16.23
2023-10-09T18:57:22.288Z,18.17
2023-10-09T18:59:53.830Z,18.73
2023-10-09T19:02:22.595Z,16.10
2023-10-09T19:04:53.381Z,17.60
2023-10-09T19:07:22.451Z,17.80
2023-10-09T19:09:51.452Z,17.03
2023-10-09T19:12:20.142Z,18.40
2023-10-09T19:14:49.785Z,17.17
2023-10-09T19:17:20.630Z,18.27
2023-10-09T19:19:49.402Z,17.63
2023-10-09T19:22:18.194Z,17.00
2023-10-09T19:24:48.198Z,18.13
2023-10-09T19:27:16.932Z,19.60
2023-10-09T19:29:48.286Z,17.60
2023-10-09T19:32:19.032Z,17.97
2023-10-09T19:34:47.802Z,18.87
2023-10-09T19:37:17.496Z,18.90
2023-10-09T19:39:46.532Z,17.63
2023-10-09T19:42:15.218Z,19.07
2023-10-09T19:44:45.741Z,19.67
2023-10-09T19:47:14.504Z,19.00
2023-10-09T19:49:44.736Z,19.57
2023-10-09T19:52:13.511Z,21.50
2023-10-09T19:54:44.223Z,19.93
2023-10-09T19:57:12.952Z,21.33
2023-10-09T19:59:41.837Z,20.90
2023-10-09T20:02:10.821Z,20.97
2023-10-09T20:04:39.669Z,22.30
2023-10-09T20:07:12.547Z,22.40
2023-10-09T20:09:41.294Z,21.80
2023-10-09T20:12:10.002Z,22.47
2023-10-09T20:14:38.960Z,22.57
2023-10-09T20:17:07.927Z,20.93
2023-10-09T20:19:36.668Z,19.70
2023-10-09T20:22:06.998Z,21.60
2023-10-09T20:24:37.132Z,20.20
2023-10-09T20:27:06.658Z,19.57
2023-10-09T20:29:37.101Z,18.83
2023-10-09T20:32:07.154Z,19.00
2023-10-09T20:34:35.906Z,18.13
2023-10-09T20:37:05.811Z,18.30
2023-10-09T20:39:34.567Z,18.17
2023-10-09T20:42:05.660Z,19.27
2023-10-09T20:44:36.594Z,18.50
2023-10-09T20:47:05.596Z,19.07
2023-10-09T20:49:34.575Z,18.07
2023-10-09T20:52:03.386Z,17.27
2023-10-09T20:54:32.120Z,16.37
2023-10-09T20:57:01.361Z,17.23
2023-10-09T20:59:31.628Z,15.60
2023-10-09T21:02:01.003Z,14.50
2023-10-09T21:04:29.815Z,13.37
2023-10-09T21:06:58.790Z,14.67
2023-10-09T21:09:28.258Z,14.33
2023-10-09T21:11:56.962Z,14.60
2023-10-09T21:14:26.552Z,16.10
2023-10-09T21:16:56.888Z,14.70
2023-10-09T21:19:25.797Z,15.13
2023-10-09T21:21:55.015Z,15.80
2023-10-09T21:24:24.819Z,18.80
2023-10-09T21:26:55.554Z,22.40
2023-10-09T21:29:24.331Z,20.60
2023-10-09T21:31:54.297Z,23.17
2023-10-09T21:34:24.517Z,22.60
2023-10-09T21:36:53.627Z,22.37
2023-10-09T21:39:22.369Z,23.83
2023-10-09T21:41:51.053Z,24.23
2023-10-09T21:44:19.786Z,24.33
2023-10-09T21:46:48.598Z,25.77
2023-10-09T21:49:17.439Z,24.83
2023-10-09T21:51:47.565Z,26.33
2023-10-09T21:54:17.018Z,26.30
2023-10-09T21:56:45.879Z,25.77
2023-10-09T21:59:14.680Z,26.57
2023-10-09T22:01:43.855Z,25.57
2023-10-09T22:04:12.992Z,27.00
2023-10-09T22:06:41.804Z,25.87
2023-10-09T22:09:15.796Z,24.60
2023-10-09T22:11:45.350Z,19.90
2023-10-09T22:14:15.044Z,24.40
2023-10-09T22:16:43.859Z,24.67
2023-10-09T22:19:14.855Z,26.40
2023-10-09T22:21:48.740Z,26.20
2023-10-09T22:24:21.975Z,27.00
2023-10-09T22:26:52.672Z,25.60
2023-10-09T22:29:21.605Z,26.90
2023-10-09T22:31:50.559Z,27.47
2023-10-09T22:34:21.193Z,27.60
2023-10-09T22:36:54.945Z,25.10
2023-10-09T22:39:34.485Z,27.30
2023-10-09T22:42:04.629Z,26.20
2023-10-09T22:44:34.649Z,25.43
2023-10-09T22:47:08.775Z,27.83
2023-10-09T22:49:39.430Z,26.27
2023-10-09T22:52:14.162Z,24.70
2023-10-09T22:54:46.721Z,27.00
2023-10-09T22:57:15.502Z,26.47
2023-10-09T22:59:51.607Z,26.80
2023-10-09T23:02:43.514Z,24.63
2023-10-09T23:05:18.499Z,26.73
2023-10-09T23:08:00.269Z,24.17
2023-10-09T23:10:32.993Z,28.40
2023-10-09T23:13:15.697Z,25.87
2023-10-09T23:15:50.877Z,27.47
2023-10-09T23:18:33.411Z,23.97
2023-10-09T23:21:16.124Z,24.20
2023-10-09T23:23:45.898Z,26.97
2023-10-09T23:26:23.644Z,24.13
2023-10-09T23:28:56.270Z,25.03
2023-10-09T23:31:27.055Z,25.20
2023-10-09T23:33:57.973Z,26.23
2023-10-09T23:36:29.874Z,24.17
2023-10-09T23:39:11.804Z,32.83
2023-10-09T23:41:41.685Z,22.80
2023-10-09T23:44:10.813Z,25.47
2023-10-09T23:46:39.927Z,25.90
2023-10-09T23:49:09.092Z,24.83
2023-10-09T23:51:41.202Z,26.50
2023-10-09T23:54:13.543Z,23.57
2023-10-09T23:56:57.041Z,24.43
2023-10-09T23:59:39.189Z,24.13
